createdAt,value
2023-02-02T00:01:11.557Z,7.85
2023-02-02T00:03:38.369Z,8.15
2023-02-02T00:06:05.251Z,12.65
2023-02-02T00:08:32.368Z,11.50
2023-02-02T00:10:58.919Z,12.27
2023-02-02T00:13:25.464Z,7.30
2023-02-02T00:15:53.565Z,11.20
2023-02-02T00:18:20.207Z,12.90
2023-02-02T00:20:49.308Z,6.82
2023-02-02T00:23:17.361Z,9.73
2023-02-02T00:25:43.907Z,7.07
2023-02-02T00:28:10.468Z,7.78
2023-02-02T00:30:37.074Z,7.78
2023-02-02T00:33:03.772Z,8.13
2023-02-02T00:35:30.388Z,9.02
2023-02-02T00:37:56.959Z,13.23
2023-02-02T00:40:23.580Z,11.55
2023-02-02T00:42:50.538Z,14.43
2023-02-02T00:45:17.211Z,14.40
2023-02-02T00:47:49.264Z,13.52
2023-02-02T00:50:21.830Z,12.63
2023-02-02T00:52:49.253Z,13.48
2023-02-02T00:55:16.492Z,15.25
2023-02-02T00:57:44.441Z,12.93
2023-02-02T01:00:15.158Z,9.35
2023-02-02T01:02:42.316Z,10.73
2023-02-02T01:05:09.755Z,10.10
2023-02-02T01:07:36.403Z,8.52
2023-02-02T01:10:03.633Z,11.18
2023-02-02T01:12:30.474Z,7.82
2023-02-02T01:14:56.996Z,10.55
2023-02-02T01:17:23.603Z,9.32
2023-02-02T01:19:50.190Z,12.82
2023-02-02T01:22:16.783Z,10.45
2023-02-02T01:24:43.330Z,16.50
2023-02-02T01:27:09.880Z,19.20
2023-02-02T01:29:36.489Z,20.98
2023-02-02T01:32:03.486Z,16.55
2023-02-02T01:34:30.089Z,21.08
2023-02-02T01:36:56.738Z,31.13
2023-02-02T01:39:23.341Z,10.88
2023-02-02T01:41:49.988Z,11.63
2023-02-02T01:44:53.851Z,14.18
2023-02-02T01:47:24.956Z,15.40
2023-02-02T01:49:52.434Z,13.60
2023-02-02T01:52:22.556Z,13.02
2023-02-02T01:54:53.291Z,14.15
2023-02-02T01:57:34.544Z,9.43
2023-02-02T02:00:05.073Z,8.52
2023-02-02T02:02:32.612Z,8.75
2023-02-02T02:05:02.150Z,9.15
2023-02-02T02:07:29.520Z,10.88
2023-02-02T02:09:56.055Z,10.27
2023-02-02T02:12:22.648Z,10.32
2023-02-02T02:15:09.579Z,9.07
2023-02-02T02:20:58.959Z,10.88
2023-02-02T02:23:44.136Z,9.13
2023-02-02T02:26:34.878Z,9.45
2023-02-02T02:29:19.815Z,7.60
2023-02-02T02:32:06.105Z,10.50
2023-02-02T02:34:52.977Z,6.53
2023-02-02T02:39:57.848Z,9.50
2023-02-02T02:42:28.627Z,11.77
2023-02-02T02:44:56.456Z,17.23
2023-02-02T02:47:23.233Z,8.57
2023-02-02T02:49:49.761Z,8.73
2023-02-02T02:52:16.351Z,13.77
2023-02-02T02:54:49.909Z,12.43
2023-02-02T02:57:31.397Z,11.80
2023-02-02T03:00:19.662Z,13.43
2023-02-02T03:03:05.051Z,10.35
2023-02-02T03:05:56.886Z,9.05
2023-02-02T03:08:55.364Z,8.10
2023-02-02T03:11:22.253Z,9.05
2023-02-02T03:13:49.428Z,7.40
2023-02-02T03:16:17.404Z,8.90
2023-02-02T03:18:44.259Z,9.52
2023-02-02T03:21:11.031Z,6.90
2023-02-02T03:23:38.758Z,7.78
2023-02-02T03:26:05.949Z,7.60
2023-02-02T03:31:02.097Z,7.43
2023-02-02T03:33:29.926Z,8.80
2023-02-02T03:35:56.585Z,8.32
2023-02-02T03:38:23.288Z,8.95
2023-02-02T03:40:51.572Z,10.95
2023-02-02T03:43:24.841Z,24.55
2023-02-02T03:46:04.303Z,9.95
2023-02-02T03:48:34.583Z,8.52
2023-02-02T03:51:01.096Z,9.68
2023-02-02T03:53:27.637Z,9.77
2023-02-02T03:55:55.016Z,9.07
2023-02-02T03:58:22.443Z,14.27
2023-02-02T04:00:49.295Z,11.15
2023-02-02T04:03:15.928Z,11.30
2023-02-02T04:05:42.504Z,8.27
2023-02-02T04:08:09.104Z,16.00
2023-02-02T04:10:35.699Z,12.45
2023-02-02T04:13:02.244Z,13.70
2023-02-02T04:15:28.806Z,13.32
2023-02-02T04:17:55.309Z,17.02
2023-02-02T04:20:21.862Z,22.30
2023-02-02T04:22:48.455Z,22.52
2023-02-02T04:25:15.035Z,20.45
2023-02-02T04:27:41.586Z,14.95
2023-02-02T04:30:09.074Z,10.20
2023-02-02T04:32:35.792Z,10.00
2023-02-02T04:35:02.424Z,18.20
2023-02-02T04:37:31.731Z,16.10
2023-02-02T04:39:58.386Z,19.23
2023-02-02T04:42:24.990Z,18.40
2023-02-02T04:44:51.525Z,18.05
2023-02-02T04:47:18.153Z,15.95
2023-02-02T04:49:44.714Z,11.68
2023-02-02T04:52:11.984Z,8.90
2023-02-02T04:57:05.006Z,10.27
2023-02-02T04:59:31.585Z,9.35
2023-02-02T05:02:02.058Z,8.15
2023-02-02T05:04:28.878Z,7.82
2023-02-02T05:06:55.537Z,7.97
2023-02-02T05:09:22.157Z,14.38
2023-02-02T05:11:48.734Z,33.13
2023-02-02T05:14:18.391Z,30.45
2023-02-02T05:16:45.084Z,35.25
2023-02-02T05:19:12.479Z,29.60
2023-02-02T05:21:39.144Z,13.32
2023-02-02T05:24:05.932Z,10.50
2023-02-02T05:26:32.469Z,10.35
2023-02-02T05:28:58.995Z,13.38
2023-02-02T05:31:25.753Z,20.67
2023-02-02T05:33:52.366Z,28.67
2023-02-02T05:36:19.046Z,30.25
2023-02-02T05:38:45.681Z,26.02
2023-02-02T05:41:12.272Z,19.42
2023-02-02T05:43:38.855Z,15.88
2023-02-02T05:46:05.435Z,12.70
2023-02-02T05:48:32.355Z,13.63
2023-02-02T05:51:12.183Z,11.25
2023-02-02T05:53:39.301Z,13.93
2023-02-02T05:56:06.061Z,16.38
2023-02-02T05:58:32.588Z,19.00
2023-02-02T06:00:59.118Z,13.23
2023-02-02T06:03:25.806Z,21.83
2023-02-02T06:05:52.519Z,27.67
2023-02-02T06:08:19.114Z,20.65
2023-02-02T06:10:45.751Z,15.35
2023-02-02T06:13:12.348Z,16.88
2023-02-02T06:15:39.010Z,49.67
2023-02-02T06:18:08.648Z,22.60
2023-02-02T06:20:35.576Z,11.20
2023-02-02T06:23:02.564Z,8.82
2023-02-02T06:25:29.088Z,13.32
2023-02-02T06:27:57.447Z,8.95
2023-02-02T06:30:24.320Z,14.85
2023-02-02T06:32:51.147Z,23.45
2023-02-02T06:35:17.991Z,19.40
2023-02-02T06:37:44.837Z,16.13
2023-02-02T06:40:12.351Z,16.00
2023-02-02T06:42:39.040Z,8.82
2023-02-02T06:45:05.993Z,5.85
2023-02-02T06:47:33.410Z,8.35
2023-02-02T06:49:59.956Z,10.60
2023-02-02T06:52:26.720Z,5.95
2023-02-02T06:54:53.335Z,8.10
2023-02-02T06:57:19.968Z,6.15
2023-02-02T06:59:47.196Z,9.73
2023-02-02T07:02:14.088Z,15.65
2023-02-02T07:04:40.745Z,30.15
2023-02-02T07:07:07.329Z,34.63
2023-02-02T07:09:34.410Z,46.35
2023-02-02T07:12:01.286Z,32.22
2023-02-02T07:14:27.892Z,21.92
2023-02-02T07:16:54.413Z,42.50
2023-02-02T07:19:21.019Z,22.30
2023-02-02T07:21:47.738Z,22.92
2023-02-02T07:24:14.245Z,25.98
2023-02-02T07:26:40.958Z,29.88
2023-02-02T07:29:07.811Z,35.95
2023-02-02T07:31:36.667Z,31.98
2023-02-02T07:34:03.827Z,29.83
2023-02-02T07:36:30.607Z,27.83
2023-02-02T07:39:02.330Z,25.92
2023-02-02T07:41:28.947Z,39.13
2023-02-02T07:43:55.559Z,27.35
2023-02-02T07:46:22.431Z,23.98
2023-02-02T07:48:49.328Z,41.97
2023-02-02T07:51:18.231Z,51.60
2023-02-02T07:53:50.431Z,42.65
2023-02-02T07:56:18.252Z,32.65
2023-02-02T07:58:45.428Z,29.52
2023-02-02T08:01:14.801Z,29.25
2023-02-02T08:03:42.987Z,29.92
2023-02-02T08:06:19.826Z,32.88
2023-02-02T08:08:47.651Z,29.65
2023-02-02T08:11:16.109Z,40.55
2023-02-02T08:13:43.818Z,34.63
2023-02-02T08:16:12.463Z,37.25
2023-02-02T08:18:39.720Z,37.58
2023-02-02T08:21:08.598Z,29.67
2023-02-02T08:23:36.674Z,29.88
2023-02-02T08:26:10.796Z,23.75
2023-02-02T08:28:38.060Z,20.67
2023-02-02T08:31:11.733Z,33.72
2023-02-02T08:33:39.639Z,24.58
2023-02-02T08:36:12.160Z,25.13
2023-02-02T08:38:39.049Z,17.27
2023-02-02T08:41:07.289Z,16.83
2023-02-02T08:43:34.360Z,18.23
2023-02-02T08:46:05.355Z,16.70
2023-02-02T08:48:40.068Z,14.52
2023-02-02T08:51:07.587Z,25.30
2023-02-02T08:53:34.730Z,19.45
2023-02-02T08:56:10.977Z,14.65
2023-02-02T08:58:38.236Z,23.87
2023-02-02T09:03:33.870Z,14.57
2023-02-02T09:06:09.071Z,16.25
2023-02-02T09:08:36.066Z,19.77
2023-02-02T09:11:18.602Z,12.55
2023-02-02T09:13:46.844Z,12.52
2023-02-02T09:16:15.406Z,10.95
2023-02-02T09:18:42.801Z,19.23
2023-02-02T09:23:39.215Z,12.40
2023-02-02T09:26:40.353Z,16.83
2023-02-02T09:29:08.550Z,12.38
2023-02-02T09:31:37.373Z,16.05
2023-02-02T09:34:06.244Z,14.63
2023-02-02T09:36:33.912Z,16.67
2023-02-02T09:39:00.859Z,12.55
2023-02-02T09:41:39.539Z,11.23
2023-02-02T09:44:45.454Z,13.57
2023-02-02T09:47:11.993Z,25.52
2023-02-02T09:50:03.257Z,17.20
2023-02-02T09:52:40.744Z,19.50
2023-02-02T09:55:15.789Z,15.80
2023-02-02T09:57:55.587Z,14.55
2023-02-02T10:00:32.722Z,15.27
2023-02-02T10:03:11.079Z,15.93
2023-02-02T10:06:02.876Z,19.52
2023-02-02T10:08:51.284Z,17.40
2023-02-02T10:11:23.748Z,13.80
2023-02-02T10:13:52.925Z,18.00
2023-02-02T10:16:22.398Z,14.63
2023-02-02T10:19:04.582Z,18.02
2023-02-02T10:21:53.051Z,8.20
2023-02-02T10:24:22.604Z,7.53
2023-02-02T10:26:54.187Z,7.95
2023-02-02T10:29:27.233Z,7.90
2023-02-02T10:32:10.869Z,8.55
2023-02-02T10:34:40.591Z,15.85
2023-02-02T10:37:19.611Z,11.48
2023-02-02T10:39:55.020Z,118.43
2023-02-02T10:42:24.593Z,8.77
2023-02-02T10:45:18.127Z,10.55
2023-02-02T10:47:45.821Z,7.40
2023-02-02T10:50:12.394Z,9.38
2023-02-02T10:52:50.284Z,7.43
2023-02-02T10:55:35.700Z,7.72
2023-02-02T10:58:06.814Z,5.50
2023-02-02T11:00:34.774Z,12.90
2023-02-02T11:03:04.724Z,10.98
2023-02-02T11:05:50.471Z,9.10
2023-02-02T11:08:30.231Z,16.17
2023-02-02T11:11:01.991Z,15.27
2023-02-02T11:13:32.648Z,10.75
2023-02-02T11:16:19.889Z,14.20
2023-02-02T11:18:47.247Z,26.77
2023-02-02T11:21:22.562Z,13.45
2023-02-02T11:24:01.407Z,7.70
2023-02-02T11:26:45.347Z,8.15
2023-02-02T11:29:37.400Z,10.82
2023-02-02T11:32:27.458Z,16.08
2023-02-02T11:35:19.578Z,9.00
2023-02-02T11:38:14.470Z,9.85
2023-02-02T11:41:05.247Z,10.27
2023-02-02T11:43:41.470Z,8.63
2023-02-02T11:46:31.264Z,13.82
2023-02-02T11:49:04.253Z,14.02
2023-02-02T11:51:31.658Z,12.93
2023-02-02T11:56:36.947Z,31.17
2023-02-02T11:59:05.614Z,11.88
2023-02-02T12:01:41.445Z,12.60
2023-02-02T12:04:24.467Z,13.43
2023-02-02T12:06:51.169Z,9.13
2023-02-02T12:09:21.603Z,11.35
2023-02-02T12:12:09.542Z,13.30
2023-02-02T12:14:43.886Z,18.08
2023-02-02T12:17:39.003Z,13.68
2023-02-02T12:20:36.815Z,6.43
2023-02-02T12:23:24.635Z,9.50
2023-02-02T12:25:59.299Z,7.68
2023-02-02T12:28:53.782Z,7.55
2023-02-02T12:31:48.833Z,6.65
2023-02-02T12:34:18.287Z,7.68
2023-02-02T12:36:47.615Z,9.93
2023-02-02T12:39:34.607Z,5.70
2023-02-02T12:42:07.138Z,4.00
2023-02-02T12:45:04.298Z,7.57
2023-02-02T12:47:48.166Z,7.10
2023-02-02T12:50:29.939Z,7.68
2023-02-02T12:53:17.896Z,7.20
2023-02-02T12:55:59.474Z,7.43
2023-02-02T12:58:41.636Z,9.90
2023-02-02T13:01:20.673Z,10.10
2023-02-02T13:04:19.184Z,8.27
2023-02-02T13:06:56.439Z,4.72
2023-02-02T13:12:19.119Z,6.45
2023-02-02T13:14:55.329Z,2.78
2023-02-02T13:17:29.616Z,4.18
2023-02-02T13:20:02.283Z,4.53
2023-02-02T13:22:34.523Z,3.38
2023-02-02T13:25:05.127Z,4.40
2023-02-02T13:27:32.959Z,2.97
2023-02-02T13:30:11.320Z,3.22
2023-02-02T13:32:42.643Z,3.85
2023-02-02T13:35:34.150Z,2.45
2023-02-02T13:38:34.946Z,4.45
2023-02-02T13:41:07.533Z,2.95
2023-02-02T13:43:47.914Z,3.13
2023-02-02T13:46:31.154Z,3.40
2023-02-02T13:49:10.846Z,3.55
2023-02-02T13:51:55.014Z,6.78
2023-02-02T13:54:31.653Z,5.72
2023-02-02T13:57:06.953Z,4.10
2023-02-02T13:59:39.378Z,4.97
2023-02-02T14:02:20.911Z,5.32
2023-02-02T14:04:55.041Z,4.95
2023-02-02T14:07:48.544Z,3.55
2023-02-02T14:10:40.001Z,4.18
2023-02-02T14:13:32.999Z,5.85
2023-02-02T14:16:03.519Z,4.38
2023-02-02T14:18:48.962Z,3.28
2023-02-02T14:21:33.547Z,4.55
2023-02-02T14:24:19.686Z,3.83
2023-02-02T14:26:53.025Z,4.20
2023-02-02T14:29:31.928Z,9.13
2023-02-02T14:32:02.557Z,2.70
2023-02-02T14:34:40.731Z,3.67
2023-02-02T14:37:28.496Z,13.52
2023-02-02T14:40:06.180Z,11.65
2023-02-02T14:43:13.488Z,12.15
2023-02-02T14:45:41.061Z,2.88
2023-02-02T14:48:07.537Z,5.30
2023-02-02T14:50:41.662Z,6.50
2023-02-02T14:53:17.736Z,16.70
2023-02-02T14:55:55.869Z,4.70
2023-02-02T14:58:29.524Z,3.92
2023-02-02T15:01:25.209Z,14.38
2023-02-02T15:04:00.791Z,4.88
2023-02-02T15:06:36.416Z,4.93
2023-02-02T15:09:27.397Z,2.40
2023-02-02T15:12:02.949Z,3.35
2023-02-02T15:14:44.669Z,2.85
2023-02-02T15:17:26.319Z,4.97
2023-02-02T15:20:08.968Z,2.63
2023-02-02T15:22:43.309Z,4.25
2023-02-02T15:25:24.339Z,4.55
2023-02-02T15:28:00.370Z,5.47
2023-02-02T15:30:30.942Z,3.08
2023-02-02T15:32:57.642Z,3.30
2023-02-02T15:35:30.288Z,3.85
2023-02-02T15:38:04.574Z,7.85
2023-02-02T15:40:32.264Z,4.10
2023-02-02T15:43:02.732Z,3.72
2023-02-02T15:45:53.008Z,3.22
2023-02-02T15:48:24.665Z,3.60
2023-02-02T15:50:56.648Z,3.17
2023-02-02T15:53:44.618Z,5.43
2023-02-02T15:56:22.989Z,5.18
2023-02-02T15:58:54.035Z,4.82
2023-02-02T16:01:23.195Z,5.40
2023-02-02T16:03:57.425Z,4.57
2023-02-02T16:06:24.108Z,5.57
2023-02-02T16:08:50.842Z,3.78
2023-02-02T16:11:21.017Z,4.25
2023-02-02T16:14:02.411Z,11.18
2023-02-02T16:16:30.429Z,11.93
2023-02-02T16:19:09.576Z,16.63
2023-02-02T16:21:42.631Z,9.80
2023-02-02T16:24:21.825Z,10.80
2023-02-02T16:26:50.723Z,14.40
2023-02-02T16:29:19.231Z,19.58
2023-02-02T16:31:50.748Z,14.82
2023-02-02T16:34:42.083Z,16.38
2023-02-02T16:37:32.547Z,12.82
2023-02-02T16:40:17.538Z,17.90
2023-02-02T16:42:44.157Z,12.60
2023-02-02T16:45:34.853Z,8.73
2023-02-02T16:48:32.209Z,11.45
2023-02-02T16:51:16.797Z,5.55
2023-02-02T16:53:43.334Z,5.32
2023-02-02T16:56:19.506Z,8.13
2023-02-02T16:58:46.243Z,15.23
2023-02-02T17:01:16.619Z,24.65
2023-02-02T17:03:54.579Z,15.18
2023-02-02T17:06:46.285Z,9.07
2023-02-02T17:09:38.069Z,7.53
2023-02-02T17:12:32.806Z,7.13
2023-02-02T17:15:29.299Z,5.72
2023-02-02T17:17:56.565Z,14.20
2023-02-02T17:20:23.655Z,11.80
2023-02-02T17:23:01.435Z,9.35
2023-02-02T17:25:34.998Z,10.15
2023-02-02T17:57:38.241Z,15.25
2023-02-02T18:00:05.625Z,13.02
2023-02-02T18:07:25.889Z,19.15
2023-02-02T18:09:52.675Z,19.77
2023-02-02T18:12:19.925Z,22.95
2023-02-02T18:14:46.759Z,19.48
2023-02-02T18:17:13.692Z,19.23
2023-02-02T18:19:45.260Z,21.83
2023-02-02T18:22:13.965Z,6.75
2023-02-02T18:24:41.345Z,4.15
2023-02-02T18:32:02.905Z,5.13
2023-02-02T18:36:58.824Z,4.75
2023-02-02T18:39:25.890Z,5.40
2023-02-02T18:41:52.887Z,4.90
2023-02-02T18:44:19.620Z,4.72
2023-02-02T18:46:46.643Z,6.05
2023-02-02T18:49:13.579Z,6.75
2023-02-02T18:51:41.718Z,7.03
2023-02-02T18:54:11.021Z,7.47
2023-02-02T18:56:38.121Z,5.75
2023-02-02T18:59:06.445Z,5.75
2023-02-02T19:01:33.593Z,7.07
2023-02-02T19:04:00.991Z,8.60
2023-02-02T19:06:47.778Z,8.48
2023-02-02T19:09:17.610Z,4.82
2023-02-02T19:11:49.007Z,6.65
2023-02-02T19:14:16.400Z,6.40
2023-02-02T19:16:45.398Z,5.80
2023-02-02T19:19:22.716Z,8.00
2023-02-02T19:21:58.358Z,7.82
2023-02-02T19:24:27.684Z,8.82
2023-02-02T19:26:55.520Z,8.57
2023-02-02T19:29:24.941Z,10.88
2023-02-02T19:31:56.961Z,8.75
2023-02-02T19:34:24.323Z,7.05
2023-02-02T19:39:30.941Z,7.40
2023-02-02T19:42:00.527Z,8.65
2023-02-02T19:44:32.113Z,19.83
2023-02-02T19:47:00.161Z,23.58
2023-02-02T19:49:37.340Z,17.17
2023-02-02T19:54:39.716Z,19.23
2023-02-02T19:57:15.046Z,13.18
2023-02-02T19:59:45.685Z,14.85
2023-02-02T20:02:37.645Z,17.45
2023-02-02T20:05:21.553Z,16.38
2023-02-02T20:07:56.427Z,21.60
2023-02-02T20:10:27.278Z,35.25
2023-02-02T20:12:55.431Z,41.75
2023-02-02T20:15:31.759Z,44.35
2023-02-02T20:18:01.937Z,44.92
2023-02-02T20:20:52.046Z,26.60
2023-02-02T20:23:29.405Z,29.02
2023-02-02T20:25:56.949Z,37.28
2023-02-02T20:28:37.046Z,18.55
2023-02-02T20:31:06.179Z,13.55
2023-02-02T20:33:33.412Z,16.00
2023-02-02T20:36:03.146Z,15.85
2023-02-02T20:38:40.325Z,13.75
2023-02-02T20:43:36.085Z,10.65
2023-02-02T20:46:03.357Z,10.30
2023-02-02T20:48:30.537Z,8.57
2023-02-02T20:50:57.370Z,12.15
2023-02-02T20:53:24.189Z,18.08
2023-02-02T20:55:57.183Z,9.98
2023-02-02T20:58:25.506Z,7.15
2023-02-02T21:00:52.759Z,6.88
2023-02-02T21:05:47.925Z,6.40
2023-02-02T21:10:41.731Z,6.95
2023-02-02T21:13:08.694Z,7.45
2023-02-02T21:15:35.725Z,6.45
2023-02-02T21:18:02.470Z,6.57
2023-02-02T21:20:29.573Z,5.50
2023-02-02T21:22:56.904Z,5.75
2023-02-02T21:25:23.583Z,7.13
2023-02-02T21:27:50.277Z,11.68
2023-02-02T21:30:16.979Z,16.02
2023-02-02T21:32:44.490Z,13.93
2023-02-02T21:35:12.111Z,9.05
2023-02-02T21:37:40.756Z,6.38
2023-02-02T21:40:14.836Z,7.22
2023-02-02T21:42:48.615Z,13.05
2023-02-02T21:45:21.124Z,27.45
2023-02-02T21:48:21.259Z,23.05
2023-02-02T21:50:48.116Z,27.48
2023-02-02T21:53:25.794Z,6.32
2023-02-02T21:55:57.293Z,4.00
2023-02-02T21:58:38.554Z,4.25
2023-02-02T22:01:36.164Z,4.90
2023-02-02T22:04:03.135Z,5.85
2023-02-02T22:06:36.372Z,4.07
2023-02-02T22:09:11.919Z,6.55
2023-02-02T22:12:01.556Z,5.57
2023-02-02T22:14:38.857Z,4.90
2023-02-02T22:17:34.496Z,5.15
2023-02-02T22:20:25.066Z,5.47
2023-02-02T22:22:52.260Z,5.15
2023-02-02T22:25:21.010Z,5.13
2023-02-02T22:27:53.967Z,5.22
2023-02-02T22:30:28.665Z,6.32
2023-02-02T22:32:55.703Z,6.20
2023-02-02T22:35:22.487Z,4.72
2023-02-02T22:37:49.224Z,5.50
2023-02-02T22:40:16.511Z,4.55
2023-02-02T22:45:10.156Z,27.75
2023-02-02T22:47:36.789Z,25.27
2023-02-02T22:50:03.746Z,28.35
2023-02-02T22:52:30.351Z,21.70
2023-02-02T22:54:57.007Z,22.38
2023-02-02T22:57:23.677Z,19.83
2023-02-02T22:59:50.291Z,20.40
2023-02-02T23:02:16.955Z,12.68
2023-02-02T23:04:43.626Z,19.35
2023-02-02T23:07:10.277Z,32.75
2023-02-02T23:09:36.933Z,54.50
2023-02-02T23:12:03.686Z,20.88
2023-02-02T23:14:30.314Z,21.65
2023-02-02T23:16:57.014Z,20.73
2023-02-02T23:19:23.600Z,22.10
2023-02-02T23:21:50.215Z,24.63
2023-02-02T23:24:16.847Z,25.13
2023-02-02T23:26:43.567Z,23.83
2023-02-02T23:29:10.183Z,15.85
2023-02-02T23:31:36.938Z,14.02
2023-02-02T23:34:03.593Z,10.63
2023-02-02T23:36:30.201Z,10.75
2023-02-02T23:38:56.884Z,10.70
2023-02-02T23:41:23.530Z,10.55
2023-02-02T23:43:50.482Z,12.60
2023-02-02T23:46:18.051Z,11.93
2023-02-02T23:48:45.233Z,12.55
2023-02-02T23:51:12.435Z,13.13
2023-02-02T23:53:39.594Z,14.02
2023-02-02T23:56:06.370Z,18.30
2023-02-02T23:58:33.079Z,18.65
